This is the latest recevied weather packets stored in our database for station/object BMCB-30. If no packets are shown the sender has not sent any weather packets the latest 10 day(s).
| Time | Temp. | Humidity | Pressure | Rain* | Wind** | Luminosity | Snow |
|---|---|---|---|---|---|---|---|
| 1777833046 | 13.89° C | 90% | 1013.5 hPa | 0 mm | - | 6 W/m² | - |
| 1777832447 | 13.89° C | 90% | 1013.7 hPa | 0 mm | - | 8 W/m² | - |
| 1777831245 | 14.44° C | 89% | 1013.6 hPa | 0 mm | - | 32 W/m² | - |
| 1777830050 | 14.44° C | 89% | 1013.4 hPa | 0 mm | - | 44 W/m² | - |
| 1777827645 | 13.89° C | 90% | 1013.4 hPa | 0 mm | - | 108 W/m² | - |
| 1777827048 | 13.89° C | 91% | 1013.5 hPa | 0 mm | - | 86 W/m² | - |
| 1777824043 | 13.89° C | 92% | 1013.6 hPa | 0 mm | - | 68 W/m² | - |
| 1777821644 | 13.89° C | 93% | 1013.9 hPa | 0 mm | - | 44 W/m² | - |
| 1777813244 | 13.33° C | 95% | 1014.5 hPa | 0.25 mm | - | 158 W/m² | - |
| 1777810245 | 12.78° C | 99% | 1014.5 hPa | 1.78 mm | - | 162 W/m² | - |
| 1777809644 | 12.78° C | 98% | 1014.5 hPa | 2.03 mm | - | 180 W/m² | - |
| 1777807244 | 12.22° C | 98% | 1014.6 hPa | 2.29 mm | - | 116 W/m² | - |
| 1777802445 | 11.67° C | 95% | 1014.7 hPa | 1.52 mm | - | 144 W/m² | - |
| 1777793445 | 14.44° C | 70% | 1013.8 hPa | 0 mm | - | 142 W/m² | - |
| 1777792843 | 14.44° C | 72% | 1013.7 hPa | 0 mm | - | 132 W/m² | - |
| 1777791644 | 13.89° C | 80% | 1013.6 hPa | 0 mm | - | 108 W/m² | - |
| 1777789848 | 12.78° C | 87% | 1013.7 hPa | 0 mm | - | 80 W/m² | - |
| 1777784445 | 10.56° C | 97% | 1013.9 hPa | 0 mm | - | 22 W/m² | - |
| 1777782042 | 11.11° C | 96% | 1013.9 hPa | 0 mm | - | 0 W/m² | - |
| 1777774244 | 12.22° C | 94% | 1014.4 hPa | 0 mm | - | 0 W/m² | - |
| 1777766451 | 12.78° C | 93% | 1015.4 hPa | 0 mm | - | 0 W/m² | - |
| 1777761046 | 16.11° C | 80% | 1015.1 hPa | 0 mm | - | 0 W/m² | - |
| 1777760447 | 16.11° C | 80% | 1015.1 hPa | 0 mm | - | 0 W/m² | - |
| 1777759246 | 16.11° C | 80% | 1015.2 hPa | 0 mm | - | 0 W/m² | - |
| 1777758049 | 16.11° C | 81% | 1015.3 hPa | 0 mm | - | 0 W/m² | - |
* Rain latest hour (hover to see other rain measurements)
** Current wind speed in m/s (hover to see current wind gust speed)